sensor_id;sensor_type;location;lat;lon;timestamp;P1;durP1;ratioP1;P2;durP2;ratioP2
21266;SDS011;10791;53.108;18.326;2023-04-29T00:01:03;19.17;;;11.53;;
21266;SDS011;10791;53.108;18.326;2023-04-29T00:06:07;20.67;;;12.57;;
21266;SDS011;10791;53.108;18.326;2023-04-29T00:11:10;19.73;;;11.77;;
21266;SDS011;10791;53.108;18.326;2023-04-29T00:16:14;20.93;;;11.57;;
21266;SDS011;10791;53.108;18.326;2023-04-29T00:21:17;23.50;;;12.13;;
21266;SDS011;10791;53.108;18.326;2023-04-29T00:26:20;19.87;;;11.97;;
21266;SDS011;10791;53.108;18.326;2023-04-29T00:31:24;20.57;;;12.27;;
21266;SDS011;10791;53.108;18.326;2023-04-29T00:36:27;21.53;;;13.87;;
21266;SDS011;10791;53.108;18.326;2023-04-29T00:41:31;20.30;;;12.10;;
21266;SDS011;10791;53.108;18.326;2023-04-29T00:46:34;28.20;;;13.57;;
21266;SDS011;10791;53.108;18.326;2023-04-29T00:51:39;20.30;;;13.20;;
21266;SDS011;10791;53.108;18.326;2023-04-29T00:56:44;18.37;;;12.43;;
21266;SDS011;10791;53.108;18.326;2023-04-29T01:01:48;23.83;;;13.77;;
21266;SDS011;10791;53.108;18.326;2023-04-29T01:07:40;19.37;;;13.53;;
21266;SDS011;10791;53.108;18.326;2023-04-29T01:17:40;23.87;;;13.80;;
21266;SDS011;10791;53.108;18.326;2023-04-29T01:22:50;22.50;;;14.50;;
21266;SDS011;10791;53.108;18.326;2023-04-29T01:38:45;24.57;;;15.30;;
21266;SDS011;10791;53.108;18.326;2023-04-29T01:43:53;24.20;;;15.00;;
21266;SDS011;10791;53.108;18.326;2023-04-29T01:49:00;21.77;;;14.93;;
21266;SDS011;10791;53.108;18.326;2023-04-29T01:54:03;27.27;;;16.37;;
21266;SDS011;10791;53.108;18.326;2023-04-29T01:59:06;21.40;;;14.77;;
21266;SDS011;10791;53.108;18.326;2023-04-29T02:04:09;22.33;;;14.97;;
21266;SDS011;10791;53.108;18.326;2023-04-29T02:09:13;24.27;;;14.43;;
21266;SDS011;10791;53.108;18.326;2023-04-29T02:14:16;22.70;;;14.73;;
21266;SDS011;10791;53.108;18.326;2023-04-29T02:19:20;21.77;;;14.43;;
21266;SDS011;10791;53.108;18.326;2023-04-29T02:24:23;23.67;;;14.23;;
21266;SDS011;10791;53.108;18.326;2023-04-29T02:29:26;21.77;;;14.23;;
21266;SDS011;10791;53.108;18.326;2023-04-29T02:34:32;20.80;;;13.53;;
21266;SDS011;10791;53.108;18.326;2023-04-29T02:39:36;18.37;;;13.40;;
21266;SDS011;10791;53.108;18.326;2023-04-29T02:44:39;20.03;;;12.77;;
21266;SDS011;10791;53.108;18.326;2023-04-29T02:49:43;20.37;;;13.27;;
21266;SDS011;10791;53.108;18.326;2023-04-29T02:54:47;22.53;;;12.97;;
21266;SDS011;10791;53.108;18.326;2023-04-29T02:59:50;21.60;;;13.53;;
21266;SDS011;10791;53.108;18.326;2023-04-29T03:04:53;22.83;;;13.07;;
21266;SDS011;10791;53.108;18.326;2023-04-29T03:09:57;23.13;;;13.90;;
21266;SDS011;10791;53.108;18.326;2023-04-29T03:15:00;24.10;;;13.17;;
21266;SDS011;10791;53.108;18.326;2023-04-29T03:20:04;26.77;;;12.97;;
21266;SDS011;10791;53.108;18.326;2023-04-29T03:25:08;20.37;;;12.53;;
21266;SDS011;10791;53.108;18.326;2023-04-29T03:30:11;24.00;;;12.83;;
21266;SDS011;10791;53.108;18.326;2023-04-29T03:35:15;21.23;;;12.67;;
21266;SDS011;10791;53.108;18.326;2023-04-29T03:40:18;21.93;;;12.27;;
21266;SDS011;10791;53.108;18.326;2023-04-29T03:45:22;23.50;;;12.97;;
21266;SDS011;10791;53.108;18.326;2023-04-29T03:50:25;18.23;;;12.83;;
21266;SDS011;10791;53.108;18.326;2023-04-29T03:55:29;20.83;;;13.87;;
21266;SDS011;10791;53.108;18.326;2023-04-29T04:00:32;26.10;;;13.57;;
21266;SDS011;10791;53.108;18.326;2023-04-29T04:05:36;22.87;;;14.07;;
21266;SDS011;10791;53.108;18.326;2023-04-29T04:10:39;23.33;;;13.93;;
21266;SDS011;10791;53.108;18.326;2023-04-29T04:15:48;21.03;;;12.90;;
21266;SDS011;10791;53.108;18.326;2023-04-29T04:20:52;22.40;;;14.00;;
21266;SDS011;10791;53.108;18.326;2023-04-29T04:25:56;23.87;;;13.77;;
21266;SDS011;10791;53.108;18.326;2023-04-29T04:30:59;21.67;;;14.23;;
21266;SDS011;10791;53.108;18.326;2023-04-29T04:36:02;23.90;;;14.97;;
21266;SDS011;10791;53.108;18.326;2023-04-29T04:41:06;23.30;;;13.90;;
21266;SDS011;10791;53.108;18.326;2023-04-29T04:46:10;23.13;;;13.37;;
21266;SDS011;10791;53.108;18.326;2023-04-29T04:51:14;18.50;;;12.37;;
21266;SDS011;10791;53.108;18.326;2023-04-29T04:56:18;21.27;;;13.73;;
21266;SDS011;10791;53.108;18.326;2023-04-29T05:01:21;21.37;;;13.83;;
21266;SDS011;10791;53.108;18.326;2023-04-29T05:06:25;27.13;;;15.23;;
21266;SDS011;10791;53.108;18.326;2023-04-29T05:11:28;33.27;;;17.80;;
21266;SDS011;10791;53.108;18.326;2023-04-29T05:16:32;30.60;;;16.53;;
21266;SDS011;10791;53.108;18.326;2023-04-29T05:21:36;34.73;;;17.43;;
21266;SDS011;10791;53.108;18.326;2023-04-29T05:26:39;32.97;;;17.77;;
21266;SDS011;10791;53.108;18.326;2023-04-29T05:31:45;23.83;;;13.80;;
21266;SDS011;10791;53.108;18.326;2023-04-29T05:36:49;23.33;;;13.30;;
21266;SDS011;10791;53.108;18.326;2023-04-29T05:41:52;22.30;;;13.10;;
21266;SDS011;10791;53.108;18.326;2023-04-29T05:46:55;21.90;;;12.40;;
21266;SDS011;10791;53.108;18.326;2023-04-29T05:51:59;19.17;;;11.83;;
21266;SDS011;10791;53.108;18.326;2023-04-29T05:57:07;20.27;;;11.53;;
21266;SDS011;10791;53.108;18.326;2023-04-29T06:02:11;17.73;;;11.37;;
21266;SDS011;10791;53.108;18.326;2023-04-29T06:07:14;19.20;;;11.90;;
21266;SDS011;10791;53.108;18.326;2023-04-29T06:12:21;18.50;;;12.30;;
21266;SDS011;10791;53.108;18.326;2023-04-29T06:17:24;22.63;;;11.87;;
21266;SDS011;10791;53.108;18.326;2023-04-29T06:22:30;15.87;;;11.17;;
21266;SDS011;10791;53.108;18.326;2023-04-29T06:27:34;17.30;;;10.80;;
21266;SDS011;10791;53.108;18.326;2023-04-29T06:32:38;17.27;;;11.73;;
21266;SDS011;10791;53.108;18.326;2023-04-29T06:37:41;17.40;;;12.30;;
21266;SDS011;10791;53.108;18.326;2023-04-29T06:42:44;18.33;;;10.73;;
21266;SDS011;10791;53.108;18.326;2023-04-29T06:47:48;17.77;;;10.67;;
21266;SDS011;10791;53.108;18.326;2023-04-29T06:52:51;20.37;;;11.93;;
21266;SDS011;10791;53.108;18.326;2023-04-29T06:57:54;17.93;;;11.67;;
21266;SDS011;10791;53.108;18.326;2023-04-29T07:02:59;19.90;;;11.27;;
21266;SDS011;10791;53.108;18.326;2023-04-29T07:08:03;16.57;;;10.77;;
21266;SDS011;10791;53.108;18.326;2023-04-29T07:13:07;16.10;;;10.63;;
21266;SDS011;10791;53.108;18.326;2023-04-29T07:18:11;21.17;;;10.97;;
21266;SDS011;10791;53.108;18.326;2023-04-29T07:23:16;18.53;;;11.03;;
21266;SDS011;10791;53.108;18.326;2023-04-29T07:28:19;15.17;;;10.87;;
21266;SDS011;10791;53.108;18.326;2023-04-29T07:33:22;16.80;;;11.40;;
21266;SDS011;10791;53.108;18.326;2023-04-29T07:38:26;14.60;;;10.60;;
21266;SDS011;10791;53.108;18.326;2023-04-29T07:43:31;14.67;;;10.40;;
21266;SDS011;10791;53.108;18.326;2023-04-29T07:48:37;16.53;;;11.00;;
21266;SDS011;10791;53.108;18.326;2023-04-29T07:53:41;19.90;;;11.27;;
21266;SDS011;10791;53.108;18.326;2023-04-29T07:58:45;16.30;;;10.37;;
21266;SDS011;10791;53.108;18.326;2023-04-29T08:03:48;15.03;;;9.63;;
21266;SDS011;10791;53.108;18.326;2023-04-29T08:08:52;19.03;;;10.57;;
21266;SDS011;10791;53.108;18.326;2023-04-29T08:13:57;18.03;;;10.03;;
21266;SDS011;10791;53.108;18.326;2023-04-29T08:19:01;18.43;;;10.83;;
21266;SDS011;10791;53.108;18.326;2023-04-29T08:24:04;17.87;;;11.23;;
21266;SDS011;10791;53.108;18.326;2023-04-29T08:29:08;17.97;;;10.67;;
21266;SDS011;10791;53.108;18.326;2023-04-29T08:34:11;16.93;;;11.33;;
21266;SDS011;10791;53.108;18.326;2023-04-29T08:39:14;20.87;;;11.77;;
21266;SDS011;10791;53.108;18.326;2023-04-29T08:44:18;15.50;;;11.40;;
21266;SDS011;10791;53.108;18.326;2023-04-29T08:49:22;18.60;;;11.80;;
21266;SDS011;10791;53.108;18.326;2023-04-29T08:54:25;18.13;;;11.50;;
21266;SDS011;10791;53.108;18.326;2023-04-29T08:59:30;19.43;;;12.23;;
21266;SDS011;10791;53.108;18.326;2023-04-29T09:04:40;19.17;;;12.27;;
21266;SDS011;10791;53.108;18.326;2023-04-29T09:09:48;17.43;;;11.87;;
21266;SDS011;10791;53.108;18.326;2023-04-29T09:14:53;17.17;;;13.00;;
21266;SDS011;10791;53.108;18.326;2023-04-29T09:20:00;18.87;;;12.50;;
21266;SDS011;10791;53.108;18.326;2023-04-29T09:25:10;15.43;;;12.20;;
21266;SDS011;10791;53.108;18.326;2023-04-29T09:30:14;32.83;;;23.03;;
21266;SDS011;10791;53.108;18.326;2023-04-29T09:35:26;36.03;;;25.87;;
21266;SDS011;10791;53.108;18.326;2023-04-29T09:40:30;21.30;;;14.20;;
21266;SDS011;10791;53.108;18.326;2023-04-29T09:45:48;21.87;;;15.03;;
21266;SDS011;10791;53.108;18.326;2023-04-29T09:51:00;23.97;;;14.97;;
21266;SDS011;10791;53.108;18.326;2023-04-29T09:56:07;19.37;;;13.63;;
21266;SDS011;10791;53.108;18.326;2023-04-29T10:01:10;19.63;;;13.33;;
21266;SDS011;10791;53.108;18.326;2023-04-29T10:06:16;19.63;;;13.57;;
21266;SDS011;10791;53.108;18.326;2023-04-29T10:11:20;24.63;;;14.50;;
21266;SDS011;10791;53.108;18.326;2023-04-29T10:16:27;19.67;;;13.70;;
21266;SDS011;10791;53.108;18.326;2023-04-29T10:21:33;22.57;;;13.90;;
21266;SDS011;10791;53.108;18.326;2023-04-29T10:26:37;15.87;;;12.73;;
21266;SDS011;10791;53.108;18.326;2023-04-29T10:31:47;20.67;;;13.13;;
21266;SDS011;10791;53.108;18.326;2023-04-29T10:36:52;20.60;;;13.50;;
21266;SDS011;10791;53.108;18.326;2023-04-29T10:41:56;19.37;;;14.03;;
21266;SDS011;10791;53.108;18.326;2023-04-29T10:47:18;19.67;;;13.67;;
21266;SDS011;10791;53.108;18.326;2023-04-29T10:52:22;19.67;;;14.10;;
21266;SDS011;10791;53.108;18.326;2023-04-29T10:57:29;21.40;;;14.40;;
21266;SDS011;10791;53.108;18.326;2023-04-29T11:02:32;20.43;;;13.70;;
21266;SDS011;10791;53.108;18.326;2023-04-29T11:07:36;18.50;;;13.10;;
21266;SDS011;10791;53.108;18.326;2023-04-29T11:12:39;19.73;;;12.73;;
21266;SDS011;10791;53.108;18.326;2023-04-29T11:17:43;20.87;;;12.77;;
21266;SDS011;10791;53.108;18.326;2023-04-29T11:22:49;20.90;;;12.40;;
21266;SDS011;10791;53.108;18.326;2023-04-29T11:27:54;19.00;;;12.73;;
21266;SDS011;10791;53.108;18.326;2023-04-29T11:32:58;20.50;;;12.97;;
21266;SDS011;10791;53.108;18.326;2023-04-29T11:38:03;19.30;;;13.27;;
21266;SDS011;10791;53.108;18.326;2023-04-29T11:43:07;18.43;;;12.97;;
21266;SDS011;10791;53.108;18.326;2023-04-29T11:48:20;20.60;;;12.40;;
21266;SDS011;10791;53.108;18.326;2023-04-29T11:53:25;21.20;;;12.87;;
21266;SDS011;10791;53.108;18.326;2023-04-29T11:58:31;22.63;;;13.03;;
21266;SDS011;10791;53.108;18.326;2023-04-29T12:03:35;18.13;;;13.57;;
21266;SDS011;10791;53.108;18.326;2023-04-29T12:08:38;20.63;;;13.10;;
21266;SDS011;10791;53.108;18.326;2023-04-29T12:13:42;19.53;;;13.67;;
21266;SDS011;10791;53.108;18.326;2023-04-29T12:18:45;19.00;;;13.27;;
21266;SDS011;10791;53.108;18.326;2023-04-29T12:23:49;23.50;;;12.90;;
21266;SDS011;10791;53.108;18.326;2023-04-29T12:28:56;18.73;;;12.10;;
21266;SDS011;10791;53.108;18.326;2023-04-29T12:34:02;18.83;;;13.73;;
21266;SDS011;10791;53.108;18.326;2023-04-29T12:39:10;20.47;;;13.80;;
21266;SDS011;10791;53.108;18.326;2023-04-29T12:44:13;20.80;;;13.93;;
21266;SDS011;10791;53.108;18.326;2023-04-29T12:49:17;18.52;;;13.20;;
21266;SDS011;10791;53.108;18.326;2023-04-29T12:54:21;17.42;;;12.18;;
21266;SDS011;10791;53.108;18.326;2023-04-29T12:59:26;14.98;;;11.43;;
21266;SDS011;10791;53.108;18.326;2023-04-29T13:04:31;17.38;;;9.63;;
21266;SDS011;10791;53.108;18.326;2023-04-29T13:09:35;14.07;;;9.65;;
21266;SDS011;10791;53.108;18.326;2023-04-29T13:14:39;13.88;;;10.05;;
21266;SDS011;10791;53.108;18.326;2023-04-29T13:19:43;16.83;;;10.73;;
21266;SDS011;10791;53.108;18.326;2023-04-29T13:24:53;15.02;;;9.68;;
21266;SDS011;10791;53.108;18.326;2023-04-29T13:29:57;11.35;;;8.45;;
21266;SDS011;10791;53.108;18.326;2023-04-29T13:35:02;9.70;;;7.10;;
21266;SDS011;10791;53.108;18.326;2023-04-29T13:40:07;12.38;;;5.95;;
21266;SDS011;10791;53.108;18.326;2023-04-29T13:45:22;11.00;;;6.25;;
21266;SDS011;10791;53.108;18.326;2023-04-29T13:50:30;18.00;;;6.95;;
21266;SDS011;10791;53.108;18.326;2023-04-29T13:55:37;8.45;;;6.40;;
21266;SDS011;10791;53.108;18.326;2023-04-29T14:01:02;11.75;;;6.85;;
21266;SDS011;10791;53.108;18.326;2023-04-29T14:06:27;12.65;;;7.20;;
21266;SDS011;10791;53.108;18.326;2023-04-29T14:11:34;10.98;;;6.70;;
21266;SDS011;10791;53.108;18.326;2023-04-29T14:16:39;9.40;;;7.15;;
21266;SDS011;10791;53.108;18.326;2023-04-29T14:21:44;11.90;;;8.05;;
21266;SDS011;10791;53.108;18.326;2023-04-29T14:26:47;9.77;;;7.65;;
21266;SDS011;10791;53.108;18.326;2023-04-29T14:31:51;11.70;;;8.02;;
21266;SDS011;10791;53.108;18.326;2023-04-29T14:36:55;10.50;;;7.72;;
21266;SDS011;10791;53.108;18.326;2023-04-29T14:42:00;10.43;;;7.00;;
21266;SDS011;10791;53.108;18.326;2023-04-29T14:47:05;15.40;;;7.78;;
21266;SDS011;10791;53.108;18.326;2023-04-29T14:52:08;11.45;;;8.02;;
21266;SDS011;10791;53.108;18.326;2023-04-29T14:57:12;13.73;;;8.85;;
21266;SDS011;10791;53.108;18.326;2023-04-29T15:02:15;13.82;;;8.82;;
21266;SDS011;10791;53.108;18.326;2023-04-29T15:07:18;11.82;;;8.93;;
21266;SDS011;10791;53.108;18.326;2023-04-29T15:12:23;11.60;;;8.23;;
21266;SDS011;10791;53.108;18.326;2023-04-29T15:17:26;10.95;;;8.20;;
21266;SDS011;10791;53.108;18.326;2023-04-29T15:22:30;12.48;;;7.40;;
21266;SDS011;10791;53.108;18.326;2023-04-29T15:27:33;11.40;;;8.20;;
21266;SDS011;10791;53.108;18.326;2023-04-29T15:32:38;10.70;;;7.43;;
21266;SDS011;10791;53.108;18.326;2023-04-29T15:37:41;12.52;;;8.20;;
21266;SDS011;10791;53.108;18.326;2023-04-29T15:42:44;9.23;;;7.57;;
21266;SDS011;10791;53.108;18.326;2023-04-29T15:47:48;12.15;;;7.95;;
21266;SDS011;10791;53.108;18.326;2023-04-29T15:52:51;11.82;;;8.18;;
21266;SDS011;10791;53.108;18.326;2023-04-29T15:57:57;9.52;;;7.65;;
21266;SDS011;10791;53.108;18.326;2023-04-29T16:03:01;15.75;;;9.93;;
21266;SDS011;10791;53.108;18.326;2023-04-29T16:08:04;16.08;;;10.05;;
21266;SDS011;10791;53.108;18.326;2023-04-29T16:13:09;17.77;;;10.70;;
21266;SDS011;10791;53.108;18.326;2023-04-29T16:18:12;14.52;;;10.48;;
21266;SDS011;10791;53.108;18.326;2023-04-29T16:23:16;14.15;;;10.05;;
21266;SDS011;10791;53.108;18.326;2023-04-29T16:28:20;14.18;;;9.27;;
21266;SDS011;10791;53.108;18.326;2023-04-29T16:33:23;17.40;;;9.70;;
21266;SDS011;10791;53.108;18.326;2023-04-29T16:38:26;13.95;;;10.25;;
21266;SDS011;10791;53.108;18.326;2023-04-29T16:43:30;16.23;;;10.70;;
21266;SDS011;10791;53.108;18.326;2023-04-29T16:48:33;15.90;;;10.63;;
21266;SDS011;10791;53.108;18.326;2023-04-29T16:53:37;14.70;;;10.25;;
21266;SDS011;10791;53.108;18.326;2023-04-29T16:58:40;16.27;;;10.57;;
21266;SDS011;10791;53.108;18.326;2023-04-29T17:03:47;14.73;;;10.10;;
21266;SDS011;10791;53.108;18.326;2023-04-29T17:08:51;15.45;;;9.68;;
21266;SDS011;10791;53.108;18.326;2023-04-29T17:13:54;17.35;;;9.43;;
21266;SDS011;10791;53.108;18.326;2023-04-29T17:18:58;16.55;;;10.70;;
21266;SDS011;10791;53.108;18.326;2023-04-29T17:24:01;19.75;;;10.75;;
21266;SDS011;10791;53.108;18.326;2023-04-29T17:29:05;34.30;;;22.10;;
21266;SDS011;10791;53.108;18.326;2023-04-29T17:34:09;26.23;;;13.93;;
21266;SDS011;10791;53.108;18.326;2023-04-29T17:39:20;23.05;;;14.32;;
21266;SDS011;10791;53.108;18.326;2023-04-29T17:44:25;20.98;;;14.57;;
21266;SDS011;10791;53.108;18.326;2023-04-29T17:49:29;24.40;;;17.77;;
21266;SDS011;10791;53.108;18.326;2023-04-29T17:54:36;22.48;;;16.90;;
21266;SDS011;10791;53.108;18.326;2023-04-29T17:59:46;21.43;;;16.20;;
21266;SDS011;10791;53.108;18.326;2023-04-29T18:04:52;18.77;;;14.90;;
21266;SDS011;10791;53.108;18.326;2023-04-29T18:09:58;26.37;;;17.73;;
21266;SDS011;10791;53.108;18.326;2023-04-29T18:15:05;27.93;;;19.47;;
21266;SDS011;10791;53.108;18.326;2023-04-29T18:20:13;27.60;;;20.10;;
21266;SDS011;10791;53.108;18.326;2023-04-29T18:25:17;29.87;;;20.37;;
21266;SDS011;10791;53.108;18.326;2023-04-29T18:30:21;29.13;;;18.03;;
21266;SDS011;10791;53.108;18.326;2023-04-29T18:35:24;31.80;;;21.50;;
21266;SDS011;10791;53.108;18.326;2023-04-29T18:40:29;35.33;;;24.47;;
21266;SDS011;10791;53.108;18.326;2023-04-29T18:45:32;32.80;;;23.80;;
21266;SDS011;10791;53.108;18.326;2023-04-29T18:50:39;30.03;;;23.10;;
21266;SDS011;10791;53.108;18.326;2023-04-29T18:55:43;35.27;;;25.17;;
21266;SDS011;10791;53.108;18.326;2023-04-29T19:00:50;36.27;;;24.10;;
21266;SDS011;10791;53.108;18.326;2023-04-29T19:05:57;34.97;;;24.30;;
21266;SDS011;10791;53.108;18.326;2023-04-29T19:11:02;33.40;;;22.67;;
21266;SDS011;10791;53.108;18.326;2023-04-29T19:16:05;36.93;;;25.20;;
21266;SDS011;10791;53.108;18.326;2023-04-29T19:21:11;36.20;;;26.50;;
21266;SDS011;10791;53.108;18.326;2023-04-29T19:26:16;33.57;;;24.03;;
21266;SDS011;10791;53.108;18.326;2023-04-29T19:31:21;35.30;;;24.13;;
21266;SDS011;10791;53.108;18.326;2023-04-29T19:36:28;32.63;;;22.90;;
21266;SDS011;10791;53.108;18.326;2023-04-29T19:41:33;33.23;;;22.30;;
21266;SDS011;10791;53.108;18.326;2023-04-29T19:46:37;30.87;;;22.13;;
21266;SDS011;10791;53.108;18.326;2023-04-29T19:51:45;31.30;;;21.43;;
21266;SDS011;10791;53.108;18.326;2023-04-29T19:56:53;29.63;;;20.63;;
21266;SDS011;10791;53.108;18.326;2023-04-29T20:01:57;31.63;;;20.53;;
21266;SDS011;10791;53.108;18.326;2023-04-29T20:07:02;30.13;;;19.40;;
21266;SDS011;10791;53.108;18.326;2023-04-29T20:12:06;26.90;;;20.83;;
21266;SDS011;10791;53.108;18.326;2023-04-29T20:17:10;32.33;;;19.50;;
21266;SDS011;10791;53.108;18.326;2023-04-29T20:22:14;32.73;;;21.27;;
21266;SDS011;10791;53.108;18.326;2023-04-29T20:27:18;31.20;;;22.47;;
21266;SDS011;10791;53.108;18.326;2023-04-29T20:32:24;33.13;;;23.23;;
21266;SDS011;10791;53.108;18.326;2023-04-29T20:37:28;30.93;;;23.07;;
21266;SDS011;10791;53.108;18.326;2023-04-29T20:42:35;36.57;;;24.03;;
21266;SDS011;10791;53.108;18.326;2023-04-29T20:47:41;34.17;;;23.37;;
21266;SDS011;10791;53.108;18.326;2023-04-29T20:52:45;38.23;;;25.07;;
21266;SDS011;10791;53.108;18.326;2023-04-29T20:57:50;32.20;;;22.53;;
21266;SDS011;10791;53.108;18.326;2023-04-29T21:02:54;34.10;;;23.03;;
21266;SDS011;10791;53.108;18.326;2023-04-29T21:07:57;31.57;;;21.73;;
21266;SDS011;10791;53.108;18.326;2023-04-29T21:13:00;31.13;;;21.63;;
21266;SDS011;10791;53.108;18.326;2023-04-29T21:18:04;31.73;;;22.17;;
21266;SDS011;10791;53.108;18.326;2023-04-29T21:23:08;28.77;;;20.47;;
21266;SDS011;10791;53.108;18.326;2023-04-29T21:28:11;24.87;;;17.67;;
21266;SDS011;10791;53.108;18.326;2023-04-29T21:33:17;21.00;;;15.30;;
21266;SDS011;10791;53.108;18.326;2023-04-29T21:38:21;21.17;;;13.47;;
21266;SDS011;10791;53.108;18.326;2023-04-29T21:43:26;19.30;;;13.37;;
21266;SDS011;10791;53.108;18.326;2023-04-29T21:48:29;17.10;;;12.93;;
21266;SDS011;10791;53.108;18.326;2023-04-29T21:53:34;20.20;;;13.40;;
21266;SDS011;10791;53.108;18.326;2023-04-29T21:58:38;20.17;;;13.80;;
21266;SDS011;10791;53.108;18.326;2023-04-29T22:03:43;22.53;;;14.33;;
21266;SDS011;10791;53.108;18.326;2023-04-29T22:08:47;17.67;;;12.77;;
21266;SDS011;10791;53.108;18.326;2023-04-29T22:13:50;20.37;;;12.73;;
21266;SDS011;10791;53.108;18.326;2023-04-29T22:18:54;18.27;;;12.87;;
21266;SDS011;10791;53.108;18.326;2023-04-29T22:23:59;17.47;;;12.53;;
21266;SDS011;10791;53.108;18.326;2023-04-29T22:29:02;19.23;;;12.90;;
21266;SDS011;10791;53.108;18.326;2023-04-29T22:34:05;18.80;;;12.97;;
21266;SDS011;10791;53.108;18.326;2023-04-29T22:39:09;20.63;;;12.53;;
21266;SDS011;10791;53.108;18.326;2023-04-29T22:44:12;17.93;;;12.63;;
21266;SDS011;10791;53.108;18.326;2023-04-29T22:49:16;19.67;;;10.70;;
21266;SDS011;10791;53.108;18.326;2023-04-29T22:54:20;16.90;;;11.37;;
21266;SDS011;10791;53.108;18.326;2023-04-29T22:59:23;16.77;;;11.13;;
21266;SDS011;10791;53.108;18.326;2023-04-29T23:04:26;18.30;;;10.20;;
21266;SDS011;10791;53.108;18.326;2023-04-29T23:09:30;17.10;;;10.43;;
21266;SDS011;10791;53.108;18.326;2023-04-29T23:14:33;14.97;;;10.03;;
21266;SDS011;10791;53.108;18.326;2023-04-29T23:19:36;18.60;;;10.47;;
21266;SDS011;10791;53.108;18.326;2023-04-29T23:24:40;15.57;;;9.00;;
21266;SDS011;10791;53.108;18.326;2023-04-29T23:29:43;15.03;;;9.67;;
21266;SDS011;10791;53.108;18.326;2023-04-29T23:34:46;15.87;;;9.07;;
21266;SDS011;10791;53.108;18.326;2023-04-29T23:39:49;16.83;;;9.70;;
21266;SDS011;10791;53.108;18.326;2023-04-29T23:44:53;17.17;;;10.37;;
21266;SDS011;10791;53.108;18.326;2023-04-29T23:49:56;16.13;;;10.20;;
21266;SDS011;10791;53.108;18.326;2023-04-29T23:55:00;18.50;;;9.80;;
